Time;durP1;ratioP1;P1;durP2;ratioP2;P2;SDS_P1;SDS_P2;PMS_P1;PMS_P2;Temp;Humidity;BMP_temperature;BMP_pressure;BME280_temperature;BME280_humidity;BME280_pressure;Samples;Min_cycle;Max_cycle;Signal;HPM_P1;HPM_P2
2021/06/15 00:01:24;;;;;;;7.50;5.37;;;24.20;61.50;;;;;;4993637;28;21035;-65
2021/06/15 00:03:50;;;;;;;5.37;4.13;;;23.80;73.30;;;;;;4986897;28;20445;-62
2021/06/15 00:06:17;;;;;;;5.43;4.50;;;23.60;74.60;;;;;;4986174;28;20478;-63
2021/06/15 00:08:42;;;;;;;6.07;5.20;;;23.50;70.90;;;;;;4988800;28;20474;-62
2021/06/15 00:11:08;;;;;;;5.20;4.70;;;23.30;71.80;;;;;;4988600;28;20499;-62
2021/06/15 00:13:37;;;;;;;8.17;4.47;;;23.50;70.80;;;;;;4990509;28;20522;-65
2021/06/15 00:16:03;;;;;;;4.43;4.03;;;23.50;69.10;;;;;;4983666;28;21435;-63
2021/06/15 00:18:28;;;;;;;6.27;4.80;;;23.50;68.00;;;;;;4989251;28;20456;-65
2021/06/15 00:20:54;;;;;;;5.20;4.60;;;23.50;67.10;;;;;;4991330;28;20861;-64
2021/06/15 00:23:21;;;;;;;4.73;4.33;;;23.70;66.10;;;;;;4985956;28;20219;-65
2021/06/15 00:25:48;;;;;;;5.80;4.40;;;23.80;62.60;;;;;;4996736;28;20558;-62
2021/06/15 00:28:15;;;;;;;5.07;4.57;;;23.60;62.90;;;;;;4987845;28;20991;-60
2021/06/15 00:30:42;;;;;;;6.20;4.47;;;23.30;63.70;;;;;;4985093;28;20514;-63
2021/06/15 00:33:09;;;;;;;8.70;4.97;;;23.30;63.90;;;;;;4991924;28;22645;-62
2021/06/15 00:35:36;;;;;;;5.20;4.70;;;23.20;64.40;;;;;;4993144;28;20481;-63
2021/06/15 00:38:02;;;;;;;4.60;4.20;;;23.50;64.00;;;;;;4989920;28;20502;-64
2021/06/15 00:40:28;;;;;;;4.97;4.57;;;23.40;63.70;;;;;;4990275;28;20476;-62
2021/06/15 00:42:54;;;;;;;9.23;5.53;;;22.90;65.00;;;;;;4982520;28;20469;-61
2021/06/15 00:45:25;;;;;;;5.60;4.60;;;23.10;65.00;;;;;;4988603;28;20766;-62
2021/06/15 00:47:51;;;;;;;4.87;4.40;;;23.20;65.40;;;;;;4989968;28;20483;-64
2021/06/15 00:50:19;;;;;;;6.53;4.50;;;23.10;65.40;;;;;;4992461;28;21114;-65
2021/06/15 00:52:44;;;;;;;6.53;3.93;;;23.00;65.80;;;;;;4992893;28;20539;-64
2021/06/15 00:55:11;;;;;;;5.03;4.63;;;23.30;65.00;;;;;;4998014;28;20571;-60
2021/06/15 00:57:37;;;;;;;8.10;4.77;;;23.30;64.70;;;;;;4994846;28;20964;-63
2021/06/15 01:00:05;;;;;;;6.20;4.43;;;23.20;64.80;;;;;;4988938;28;20445;-63
2021/06/15 01:02:32;;;;;;;7.20;4.87;;;23.00;65.10;;;;;;4990888;28;20846;-64
2021/06/15 01:05:01;;;;;;;8.20;4.00;;;22.90;65.60;;;;;;4989011;28;20652;-64
2021/06/15 01:07:33;;;;;;;7.60;4.90;;;23.10;65.30;;;;;;4994350;28;20440;-64
2021/06/15 01:10:33;;;;;;;5.30;4.47;;;23.00;65.80;;;;;;4993813;28;20451;-63
2021/06/15 01:13:46;;;;;;;4.60;4.20;;;23.00;65.50;;;;;;4995259;28;20470;-64
2021/06/15 01:16:30;;;;;;;4.80;4.20;;;23.00;65.70;;;;;;4956770;28;20575;-63
2021/06/15 01:19:05;;;;;;;4.87;4.20;;;22.90;66.40;;;;;;4988519;28;20491;-63
2021/06/15 01:21:46;;;;;;;6.47;4.37;;;22.80;66.90;;;;;;4992401;28;20460;-62
2021/06/15 01:24:45;;;;;;;8.20;5.30;;;23.00;66.70;;;;;;4997732;28;20960;-63
2021/06/15 01:27:32;;;;;;;5.23;4.73;;;23.10;66.20;;;;;;4987712;28;20440;-65
2021/06/15 01:30:02;;;;;;;5.27;4.43;;;22.90;66.60;;;;;;4995593;28;20437;-63
2021/06/15 01:32:30;;;;;;;6.53;5.13;;;23.00;66.90;;;;;;4991842;28;21040;-62
2021/06/15 01:34:58;;;;;;;9.13;4.63;;;23.00;66.90;;;;;;4978894;28;20433;-62
2021/06/15 01:37:32;;;;;;;7.23;4.77;;;22.70;67.90;;;;;;4984918;28;20451;-63
2021/06/15 01:40:00;;;;;;;4.70;4.30;;;22.50;68.70;;;;;;4992527;28;20531;-63
2021/06/15 01:42:31;;;;;;;5.70;4.10;;;22.80;68.20;;;;;;4991074;28;20496;-61
2021/06/15 01:45:06;;;;;;;6.47;4.70;;;22.90;67.90;;;;;;4997499;28;20991;-63
2021/06/15 01:47:33;;;;;;;5.20;4.70;;;22.80;67.30;;;;;;4992692;28;20443;-63
2021/06/15 01:50:04;;;;;;;4.70;4.20;;;22.70;67.70;;;;;;4980220;28;21036;-63
2021/06/15 01:52:39;;;;;;;4.97;4.57;;;22.80;68.00;;;;;;4990335;28;20817;-63
2021/06/15 01:55:08;;;;;;;5.70;4.33;;;22.80;67.50;;;;;;4997890;28;20470;-63
2021/06/15 01:57:35;;;;;;;5.27;4.23;;;22.80;68.30;;;;;;4987097;28;20471;-62
2021/06/15 02:00:09;;;;;;;4.87;4.47;;;22.80;68.20;;;;;;4990931;28;20505;-64
2021/06/15 02:02:37;;;;;;;5.80;4.87;;;22.70;68.60;;;;;;4990600;28;20558;-60
2021/06/15 02:05:07;;;;;;;6.60;4.77;;;22.70;68.40;;;;;;4991616;28;20492;-63
2021/06/15 02:07:37;;;;;;;4.77;4.33;;;22.70;68.60;;;;;;4990506;28;21035;-65
2021/06/15 02:10:11;;;;;;;4.97;4.33;;;22.60;68.60;;;;;;4988483;28;20447;-64
2021/06/15 02:12:40;;;;;;;5.10;4.60;;;22.70;68.20;;;;;;4991978;28;20461;-62
2021/06/15 02:15:10;;;;;;;5.40;4.90;;;22.30;68.40;;;;;;4991259;28;20447;-63
2021/06/15 02:17:41;;;;;;;8.03;4.67;;;22.30;69.20;;;;;;4981490;28;20871;-62
2021/06/15 02:20:11;;;;;;;5.10;4.67;;;22.20;70.00;;;;;;4992672;28;20437;-64
2021/06/15 02:22:37;;;;;;;5.20;4.70;;;22.30;69.80;;;;;;4995499;28;20611;-62
2021/06/15 02:25:04;;;;;;;5.47;4.70;;;22.20;69.70;;;;;;4991328;28;21026;-63
2021/06/15 02:27:30;;;;;;;5.70;4.73;;;21.60;71.50;;;;;;4989696;28;20465;-63
2021/06/15 02:29:57;;;;;;;6.87;5.00;;;21.40;72.20;;;;;;4991557;28;20936;-62
2021/06/15 02:32:38;;;;;;;5.17;4.77;;;21.70;71.50;;;;;;4985641;28;20248;-62
2021/06/15 02:35:10;;;;;;;5.00;4.60;;;21.90;71.10;;;;;;4983696;28;20444;-62
2021/06/15 02:37:48;;;;;;;6.73;4.30;;;21.80;71.40;;;;;;4989618;28;20448;-64
2021/06/15 02:40:15;;;;;;;5.83;4.60;;;21.80;71.00;;;;;;4991908;28;20444;-62
2021/06/15 02:42:43;;;;;;;5.50;4.90;;;21.40;71.70;;;;;;4989064;28;20471;-63
2021/06/15 02:45:11;;;;;;;5.20;4.70;;;21.60;72.50;;;;;;4989976;28;20895;-63
2021/06/15 02:47:39;;;;;;;5.03;4.63;;;21.70;72.60;;;;;;4984645;28;20532;-64
2021/06/15 02:50:27;;;;;;;10.13;5.70;;;21.80;74.60;;;;;;4987327;28;20986;-63
2021/06/15 02:53:10;;;;;;;8.90;5.00;;;21.60;75.20;;;;;;4994655;28;20542;-61
2021/06/15 02:55:57;;;;;;;8.10;5.10;;;21.40;76.70;;;;;;4978652;28;20543;-62
2021/06/15 02:58:25;;;;;;;6.37;5.77;;;21.40;77.50;;;;;;4988186;28;20453;-64
2021/06/15 03:00:51;;;;;;;5.60;4.90;;;21.30;78.20;;;;;;4994345;28;20547;-63
2021/06/15 03:03:16;;;;;;;7.40;5.10;;;21.30;78.40;;;;;;4991008;28;20452;-64
2021/06/15 03:05:42;;;;;;;5.97;5.03;;;21.30;78.20;;;;;;4992969;28;20233;-63
2021/06/15 03:08:11;;;;;;;5.07;4.60;;;21.40;76.70;;;;;;4994697;28;20193;-63
2021/06/15 03:10:38;;;;;;;10.50;4.90;;;21.50;76.10;;;;;;4988740;28;20554;-63
2021/06/15 03:13:13;;;;;;;5.63;5.03;;;21.20;76.10;;;;;;4993111;28;20562;-64
2021/06/15 03:15:50;;;;;;;10.53;6.23;;;21.20;76.30;;;;;;4995632;28;21004;-65
2021/06/15 03:18:49;;;;;;;5.83;5.23;;;21.20;76.10;;;;;;4993598;28;20440;-64
2021/06/15 03:21:21;;;;;;;5.53;5.03;;;21.20;76.10;;;;;;4993511;28;20478;-64
2021/06/15 03:24:02;;;;;;;7.10;4.83;;;21.30;76.10;;;;;;5003570;28;20968;-64
2021/06/15 03:26:51;;;;;;;5.83;5.10;;;21.30;75.80;;;;;;4991627;28;20476;-65
2021/06/15 03:29:21;;;;;;;4.77;4.37;;;21.30;76.00;;;;;;4988303;28;20498;-65
2021/06/15 03:31:50;;;;;;;5.40;4.67;;;21.30;76.00;;;;;;4988070;28;20551;-65
2021/06/15 03:34:21;;;;;;;6.67;5.03;;;21.30;76.10;;;;;;4993395;28;20533;-65
2021/06/15 03:36:48;;;;;;;5.10;4.70;;;21.30;75.90;;;;;;4987599;28;20445;-66
2021/06/15 03:39:17;;;;;;;5.10;4.30;;;21.30;76.10;;;;;;4987291;28;20528;-63
2021/06/15 03:41:43;;;;;;;5.43;4.93;;;21.10;76.60;;;;;;4992692;28;20460;-66
2021/06/15 03:44:09;;;;;;;6.43;4.93;;;21.10;76.80;;;;;;4991283;28;20460;-64
2021/06/15 03:46:41;;;;;;;6.20;4.67;;;21.10;76.90;;;;;;4990902;28;20496;-65
2021/06/15 03:49:14;;;;;;;6.90;5.50;;;21.10;77.00;;;;;;4988796;28;20182;-64
2021/06/15 03:51:45;;;;;;;11.37;5.67;;;21.10;77.00;;;;;;4994538;28;20578;-63
2021/06/15 03:54:14;;;;;;;8.43;5.30;;;21.10;77.20;;;;;;4994109;28;20433;-64
2021/06/15 03:56:42;;;;;;;5.97;5.23;;;21.00;77.80;;;;;;4989809;28;20468;-63
2021/06/15 03:59:12;;;;;;;6.03;5.03;;;21.00;78.00;;;;;;4987196;28;20448;-66
2021/06/15 04:01:43;;;;;;;8.10;6.70;;;21.00;78.30;;;;;;4971575;28;21256;-65
2021/06/15 04:04:11;;;;;;;5.57;5.17;;;20.90;78.00;;;;;;4989600;28;20519;-65
2021/06/15 04:06:44;;;;;;;7.70;5.40;;;20.90;78.80;;;;;;4987023;28;20472;-63
2021/06/15 04:09:15;;;;;;;7.23;5.47;;;21.00;79.00;;;;;;4978341;28;20539;-65
2021/06/15 04:11:44;;;;;;;6.73;5.53;;;21.00;78.40;;;;;;4994460;28;21161;-62
2021/06/15 04:14:12;;;;;;;5.07;4.57;;;21.00;78.40;;;;;;4988846;28;20476;-62
2021/06/15 04:16:39;;;;;;;6.53;5.93;;;21.00;78.80;;;;;;4984036;28;20546;-64
2021/06/15 04:19:09;;;;;;;7.03;5.73;;;21.00;78.50;;;;;;4992659;28;20447;-64
2021/06/15 04:21:39;;;;;;;7.73;5.70;;;21.10;79.00;;;;;;4993277;28;20464;-64
2021/06/15 04:24:11;;;;;;;5.10;4.70;;;21.00;79.40;;;;;;4981023;28;20454;-63
2021/06/15 04:26:38;;;;;;;6.03;5.10;;;20.90;79.40;;;;;;4986501;28;20529;-63
2021/06/15 04:29:14;;;;;;;7.47;5.03;;;21.00;79.50;;;;;;4994980;28;20444;-63
2021/06/15 04:31:41;;;;;;;5.87;5.20;;;20.70;80.60;;;;;;4992100;28;20460;-65
2021/06/15 04:34:09;;;;;;;5.90;5.37;;;20.80;80.20;;;;;;4996203;28;20500;-63
2021/06/15 04:36:38;;;;;;;5.60;4.93;;;20.90;80.00;;;;;;4995829;28;20451;-63
2021/06/15 04:39:08;;;;;;;6.80;5.10;;;21.00;79.90;;;;;;4970439;28;20821;-64
2021/06/15 04:41:41;;;;;;;5.87;4.73;;;21.10;79.70;;;;;;4976887;28;20473;-64
2021/06/15 04:44:11;;;;;;;4.73;4.33;;;21.00;79.80;;;;;;4970291;28;20456;-59
2021/06/15 04:46:43;;;;;;;5.47;4.97;;;21.10;79.70;;;;;;4970566;28;20508;-64
2021/06/15 04:49:18;;;;;;;6.67;5.50;;;21.10;79.80;;;;;;4974729;28;20868;-64
2021/06/15 04:51:47;;;;;;;6.67;5.50;;;21.00;80.20;;;;;;4987109;28;20487;-64
2021/06/15 04:54:18;;;;;;;4.90;4.40;;;21.00;80.30;;;;;;4970904;28;20441;-63
2021/06/15 04:56:46;;;;;;;5.67;5.00;;;20.70;80.90;;;;;;4972025;28;20446;-63
2021/06/15 04:59:12;;;;;;;5.47;4.97;;;20.70;81.80;;;;;;4972485;28;21522;-62
2021/06/15 05:01:41;;;;;;;7.87;5.20;;;20.60;81.80;;;;;;4970896;28;20492;-64
2021/06/15 05:04:08;;;;;;;6.07;5.57;;;20.70;82.10;;;;;;4972832;28;20533;-64
2021/06/15 05:06:39;;;;;;;6.57;5.70;;;20.70;83.30;;;;;;4971121;28;20477;-65
2021/06/15 05:09:05;;;;;;;6.23;5.20;;;20.70;82.30;;;;;;4971075;28;20560;-64
2021/06/15 05:11:38;;;;;;;6.97;5.30;;;20.70;82.90;;;;;;4968898;28;20516;-65
2021/06/15 05:14:13;;;;;;;6.13;5.23;;;20.50;83.20;;;;;;4957605;28;20454;-65
2021/06/15 05:16:40;;;;;;;7.30;5.73;;;20.40;84.70;;;;;;4969752;28;20452;-65
2021/06/15 05:19:06;;;;;;;7.50;5.30;;;20.40;84.10;;;;;;4971767;28;21036;-65
2021/06/15 05:21:51;;;;;;;6.97;4.60;;;20.50;85.90;;;;;;4976800;28;20552;-64
2021/06/15 05:24:49;;;;;;;5.83;5.33;;;20.60;84.10;;;;;;4970783;28;20508;-65
2021/06/15 05:27:20;;;;;;;6.00;5.50;;;20.80;83.40;;;;;;4971932;28;20814;-64
2021/06/15 05:29:47;;;;;;;6.00;5.10;;;20.70;83.80;;;;;;4968265;28;20520;-65
2021/06/15 05:32:13;;;;;;;6.50;5.07;;;20.80;83.20;;;;;;4985079;23;20500;-64
2021/06/15 05:34:39;;;;;;;6.03;4.87;;;20.90;83.10;;;;;;4986853;28;20975;-67
2021/06/15 05:37:10;;;;;;;6.67;5.73;;;21.10;82.60;;;;;;4981393;28;20214;-63
2021/06/15 05:39:37;;;;;;;9.37;5.10;;;21.00;81.60;;;;;;4980588;28;20440;-62
2021/06/15 05:42:04;;;;;;;5.97;4.70;;;21.00;82.70;;;;;;4980705;28;20461;-64
2021/06/15 05:44:30;;;;;;;5.83;5.33;;;20.90;83.90;;;;;;4978556;28;20469;-64
2021/06/15 05:46:56;;;;;;;5.90;5.03;;;21.00;83.20;;;;;;4976582;28;20476;-65
2021/06/15 05:49:22;;;;;;;10.63;6.70;;;21.10;83.10;;;;;;4974160;28;20185;-67
2021/06/15 05:51:54;;;;;;;6.47;5.23;;;21.00;83.40;;;;;;4993103;28;21081;-68
2021/06/15 05:54:21;;;;;;;5.97;5.17;;;21.10;84.00;;;;;;4973622;28;20881;-65
2021/06/15 05:56:47;;;;;;;8.67;4.83;;;21.30;83.10;;;;;;4977451;28;20437;-66
2021/06/15 05:59:13;;;;;;;8.20;4.47;;;21.40;82.70;;;;;;4974119;28;21018;-66
2021/06/15 06:01:41;;;;;;;6.03;4.83;;;21.40;82.90;;;;;;4974801;28;20211;-67
2021/06/15 06:04:10;;;;;;;4.93;4.57;;;21.30;82.80;;;;;;4976720;28;20524;-66
2021/06/15 06:09:22;;;;;;;8.63;5.20;;;21.60;82.10;;;;;;4977440;28;20544;-64
2021/06/15 06:11:47;;;;;;;10.70;5.10;;;21.80;81.10;;;;;;4979816;28;20453;-67
2021/06/15 06:14:13;;;;;;;5.37;4.80;;;21.80;81.30;;;;;;4975005;28;20445;-65
2021/06/15 06:16:42;;;;;;;5.63;4.70;;;22.00;80.60;;;;;;4974811;28;20229;-66
2021/06/15 06:19:10;;;;;;;6.87;4.97;;;22.10;79.50;;;;;;4962272;28;20201;-67
2021/06/15 06:21:37;;;;;;;5.10;4.60;;;22.10;79.40;;;;;;4973857;28;20984;-66
2021/06/15 06:24:08;;;;;;;5.50;5.00;;;21.90;80.00;;;;;;4972899;28;20806;-65
2021/06/15 06:26:35;;;;;;;6.50;5.00;;;21.80;81.00;;;;;;4981329;28;20462;-66
2021/06/15 06:29:01;;;;;;;8.70;5.30;;;21.80;81.20;;;;;;4978480;28;20442;-66
2021/06/15 06:31:27;;;;;;;7.27;5.37;;;22.00;80.50;;;;;;4963627;28;20464;-65
2021/06/15 06:33:53;;;;;;;5.80;5.20;;;22.00;81.10;;;;;;4974812;28;20192;-66
2021/06/15 06:36:19;;;;;;;5.93;5.43;;;21.90;81.80;;;;;;4966726;28;20434;-65
2021/06/15 06:38:49;;;;;;;5.30;4.80;;;21.90;81.80;;;;;;4978018;28;20515;-68
2021/06/15 06:41:17;;;;;;;5.40;4.90;;;21.90;81.80;;;;;;4977062;28;20457;-67
2021/06/15 06:43:45;;;;;;;5.30;4.73;;;22.00;81.90;;;;;;4976380;28;21056;-68
2021/06/15 06:46:11;;;;;;;8.67;7.77;;;21.80;81.40;;;;;;4977922;28;21044;-64
2021/06/15 06:48:37;;;;;;;6.40;5.50;;;21.90;82.40;;;;;;4978674;28;20505;-67
2021/06/15 06:51:05;;;;;;;8.60;5.40;;;22.10;82.20;;;;;;4979782;28;20218;-67
2021/06/15 06:53:32;;;;;;;6.90;4.90;;;22.30;81.00;;;;;;4981869;28;20428;-67
2021/06/15 06:56:00;;;;;;;7.60;6.80;;;22.50;80.20;;;;;;4979012;28;20480;-66
2021/06/15 06:58:26;;;;;;;8.50;5.23;;;22.70;80.50;;;;;;4965461;28;20444;-66
2021/06/15 07:00:53;;;;;;;10.10;5.43;;;22.80;80.40;;;;;;4977475;28;20444;-68
2021/06/15 07:03:19;;;;;;;6.33;5.23;;;22.90;80.20;;;;;;4961449;28;21784;-67
2021/06/15 07:06:07;;;;;;;10.40;5.20;;;22.70;79.80;;;;;;4977624;28;20524;-67
2021/06/15 07:09:16;;;;;;;8.93;8.07;;;22.70;80.10;;;;;;4974998;28;20204;-67
2021/06/15 07:11:47;;;;;;;10.20;5.60;;;23.00;79.30;;;;;;4978086;28;20468;-68
2021/06/15 07:14:17;;;;;;;6.90;6.23;;;22.80;80.80;;;;;;4978337;28;20425;-69
2021/06/15 07:16:44;;;;;;;7.10;5.10;;;22.70;82.20;;;;;;4974033;28;20445;-66
2021/06/15 07:19:15;;;;;;;7.10;5.03;;;22.60;83.10;;;;;;4977653;28;20434;-67
2021/06/15 07:21:49;;;;;;;10.20;5.20;;;22.70;84.10;;;;;;4978587;28;20452;-67
2021/06/15 07:24:18;;;;;;;9.87;5.30;;;22.90;83.70;;;;;;4979101;28;20528;-66
2021/06/15 07:26:45;;;;;;;6.03;5.23;;;23.00;83.00;;;;;;4978989;28;20548;-66
2021/06/15 07:29:40;;;;;;;6.17;4.30;;;23.20;81.90;;;;;;4963140;28;20536;-66
2021/06/15 07:32:10;;;;;;;5.87;5.00;;;23.30;77.50;;;;;;4978979;28;20778;-67
2021/06/15 07:34:35;;;;;;;6.03;4.57;;;23.40;76.80;;;;;;4979636;28;20451;-67
2021/06/15 07:37:46;;;;;;;8.83;5.17;;;23.60;76.90;;;;;;4946547;28;20520;-67
2021/06/15 07:40:14;;;;;;;8.00;4.40;;;23.50;77.20;;;;;;4967109;28;20194;-67
2021/06/15 07:42:44;;;;;;;7.30;5.27;;;23.60;78.00;;;;;;4992449;28;20522;-66
2021/06/15 07:45:26;;;;;;;6.83;4.87;;;23.50;78.40;;;;;;4975241;28;20464;-67
2021/06/15 07:47:55;;;;;;;5.50;5.00;;;23.60;78.70;;;;;;4976738;28;20520;-66
2021/06/15 07:50:21;;;;;;;5.87;5.27;;;23.70;78.60;;;;;;4978336;28;20429;-67
2021/06/15 07:52:55;;;;;;;6.10;4.93;;;23.80;78.90;;;;;;4972400;28;20470;-65
2021/06/15 07:55:43;;;;;;;8.33;4.90;;;23.80;78.90;;;;;;4969483;28;20456;-65
2021/06/15 07:58:40;;;;;;;6.73;4.70;;;24.00;78.80;;;;;;4979597;28;20441;-67
2021/06/15 08:01:10;;;;;;;5.43;4.70;;;24.00;78.90;;;;;;4975604;28;20578;-66
2021/06/15 08:03:44;;;;;;;7.53;5.10;;;24.00;78.80;;;;;;4976622;28;20440;-66
2021/06/15 08:06:10;;;;;;;7.83;5.57;;;24.00;79.40;;;;;;4978210;28;20469;-66
2021/06/15 08:08:38;;;;;;;5.37;4.80;;;24.10;79.70;;;;;;4978632;28;20551;-66
2021/06/15 08:11:05;;;;;;;7.30;5.20;;;24.10;80.00;;;;;;4975071;28;20489;-67
2021/06/15 08:13:34;;;;;;;9.23;5.00;;;24.10;79.00;;;;;;4957132;28;20449;-65
2021/06/15 08:16:01;;;;;;;7.90;5.20;;;24.00;79.60;;;;;;4975600;28;20485;-67
2021/06/15 08:18:27;;;;;;;5.73;5.20;;;24.00;80.20;;;;;;4972995;28;20539;-64
2021/06/15 08:20:55;;;;;;;5.47;4.97;;;24.10;81.60;;;;;;4977719;28;20441;-67
2021/06/15 08:23:25;;;;;;;6.53;5.17;;;24.20;81.60;;;;;;4975342;28;20523;-68
2021/06/15 08:25:52;;;;;;;11.10;5.70;;;24.30;80.80;;;;;;4974092;28;20604;-65
2021/06/15 08:28:18;;;;;;;5.30;4.90;;;24.40;80.80;;;;;;4977355;28;20458;-66
2021/06/15 08:30:45;;;;;;;5.37;4.97;;;24.50;80.80;;;;;;4972467;28;20440;-66
2021/06/15 08:33:11;;;;;;;7.40;4.80;;;24.60;81.00;;;;;;4956805;28;20450;-66
2021/06/15 08:35:39;;;;;;;6.70;5.77;;;24.40;80.70;;;;;;4975004;28;20456;-67
2021/06/15 08:38:41;;;;;;;6.70;4.80;;;24.40;81.30;;;;;;4975875;28;20479;-67
2021/06/15 08:41:07;;;;;;;8.70;6.30;;;24.40;81.70;;;;;;4960743;28;20460;-67
2021/06/15 08:43:45;;;;;;;6.23;5.20;;;24.50;81.50;;;;;;4976493;28;20620;-66
2021/06/15 08:46:32;;;;;;;6.50;5.73;;;24.60;80.60;;;;;;4957287;28;20215;-66
2021/06/15 08:49:04;;;;;;;5.40;4.90;;;24.80;80.00;;;;;;4974754;28;20437;-67
2021/06/15 08:51:30;;;;;;;6.90;4.93;;;25.00;79.60;;;;;;4979331;28;20444;-66
2021/06/15 08:54:07;;;;;;;5.60;5.00;;;25.20;78.00;;;;;;4972647;28;20480;-65
2021/06/15 08:56:38;;;;;;;7.50;4.50;;;25.30;78.70;;;;;;4958946;28;20825;-66
2021/06/15 08:59:34;;;;;;;6.23;5.40;;;25.50;77.00;;;;;;4975056;28;20460;-67
2021/06/15 09:02:29;;;;;;;7.33;5.50;;;25.40;76.70;;;;;;4977584;28;20457;-66
2021/06/15 09:05:21;;;;;;;6.37;5.20;;;25.30;77.00;;;;;;4984753;28;20475;-69
2021/06/15 09:08:06;;;;;;;5.10;4.60;;;25.50;76.60;;;;;;4977585;28;20460;-68
2021/06/15 09:10:38;;;;;;;5.20;4.70;;;25.60;74.10;;;;;;4978134;28;20511;-67
2021/06/15 09:13:05;;;;;;;6.47;5.20;;;25.70;74.40;;;;;;4967263;28;21508;-66
2021/06/15 09:15:32;;;;;;;6.37;5.83;;;25.70;73.30;;;;;;4974598;28;20448;-66
2021/06/15 09:17:58;;;;;;;5.43;4.93;;;25.70;72.40;;;;;;4982255;28;20468;-68
2021/06/15 09:20:32;;;;;;;5.90;5.37;;;25.80;73.80;;;;;;4982235;28;20491;-67
2021/06/15 09:22:57;;;;;;;5.20;4.80;;;25.90;72.90;;;;;;4977149;28;20516;-69
2021/06/15 09:25:24;;;;;;;6.00;4.70;;;26.10;72.90;;;;;;4979254;28;20469;-67
2021/06/15 09:27:51;;;;;;;4.87;4.47;;;26.20;72.30;;;;;;4977069;28;20461;-65
2021/06/15 09:30:17;;;;;;;6.73;4.47;;;26.30;71.70;;;;;;4977680;28;20765;-67
2021/06/15 09:32:47;;;;;;;7.47;4.40;;;26.50;69.40;;;;;;4984615;28;20549;-68
2021/06/15 09:35:18;;;;;;;7.80;4.80;;;26.60;70.60;;;;;;4964207;28;20456;-67
2021/06/15 09:37:45;;;;;;;8.23;4.30;;;26.60;69.60;;;;;;4976833;28;20447;-67
2021/06/15 09:40:20;;;;;;;5.70;4.60;;;26.70;68.90;;;;;;4979979;28;20449;-67
2021/06/15 09:42:54;;;;;;;8.73;4.50;;;26.80;68.60;;;;;;4992903;28;20464;-68
2021/06/15 09:45:23;;;;;;;5.40;4.90;;;26.90;68.40;;;;;;4973825;28;20520;-68
2021/06/15 09:47:49;;;;;;;4.87;4.47;;;27.10;69.20;;;;;;4975291;28;20466;-67
2021/06/15 09:50:17;;;;;;;5.60;4.63;;;27.10;67.60;;;;;;4976936;28;20437;-67
2021/06/15 09:52:43;;;;;;;5.57;4.53;;;27.20;65.80;;;;;;4977806;28;20468;-68
2021/06/15 09:55:09;;;;;;;4.97;4.20;;;27.30;66.60;;;;;;4946506;28;20854;-68
2021/06/15 09:57:40;;;;;;;5.10;4.53;;;27.40;68.50;;;;;;4978840;28;20433;-66
2021/06/15 10:00:20;;;;;;;13.17;4.70;;;27.40;66.40;;;;;;4978149;28;21257;-68
2021/06/15 10:03:06;;;;;;;7.00;4.00;;;27.50;66.20;;;;;;4974807;28;20543;-68
2021/06/15 10:05:37;;;;;;;5.33;4.80;;;27.60;63.80;;;;;;4978537;28;20572;-69
2021/06/15 10:08:06;;;;;;;4.90;4.50;;;27.70;64.00;;;;;;4972244;28;20553;-68
2021/06/15 10:10:37;;;;;;;6.30;4.50;;;27.80;63.40;;;;;;4978386;28;20512;-68
2021/06/15 10:13:04;;;;;;;4.40;4.00;;;27.70;64.20;;;;;;4976055;28;20521;-67
2021/06/15 10:15:31;;;;;;;4.50;4.20;;;27.80;64.20;;;;;;4976717;28;20434;-67
2021/06/15 10:17:58;;;;;;;9.33;5.27;;;27.80;63.70;;;;;;4980639;28;20825;-68
2021/06/15 10:20:30;;;;;;;4.57;4.17;;;27.90;63.80;;;;;;4975319;28;20441;-68
2021/06/15 10:22:56;;;;;;;6.00;4.93;;;28.10;62.20;;;;;;4979965;28;20453;-68
2021/06/15 10:25:25;;;;;;;4.33;3.93;;;28.10;59.90;;;;;;4975578;28;20523;-66
2021/06/15 10:27:55;;;;;;;6.10;5.60;;;28.20;60.80;;;;;;4976892;28;20487;-68
2021/06/15 10:30:29;;;;;;;7.33;4.70;;;28.20;61.90;;;;;;4982272;28;20797;-68
2021/06/15 10:33:02;;;;;;;4.80;4.40;;;28.40;62.00;;;;;;4972346;28;20457;-67
2021/06/15 10:35:58;;;;;;;4.57;4.27;;;28.50;60.50;;;;;;4976623;28;20714;-68
2021/06/15 10:38:30;;;;;;;5.60;5.10;;;28.60;60.10;;;;;;4975106;28;20459;-68
2021/06/15 10:41:01;;;;;;;4.80;4.40;;;28.60;61.30;;;;;;4978579;28;20997;-66
2021/06/15 10:43:43;;;;;;;8.20;4.70;;;28.60;62.30;;;;;;4975710;28;20426;-66
2021/06/15 10:46:13;;;;;;;7.90;4.77;;;28.70;62.20;;;;;;4979186;28;20973;-67
2021/06/15 10:48:44;;;;;;;6.17;5.33;;;28.80;59.50;;;;;;4980868;28;20434;-66
2021/06/15 10:51:29;;;;;;;4.73;4.17;;;28.80;59.80;;;;;;4975359;28;20436;-66
2021/06/15 10:54:02;;;;;;;5.40;4.63;;;28.90;60.10;;;;;;4978526;28;20659;-64
2021/06/15 10:56:34;;;;;;;5.70;4.63;;;29.00;60.00;;;;;;4980146;28;20428;-67
2021/06/15 10:59:07;;;;;;;5.30;4.60;;;28.90;58.20;;;;;;4972191;28;20429;-66
2021/06/15 11:01:42;;;;;;;4.50;4.10;;;28.80;57.00;;;;;;4974632;28;21080;-67
2021/06/15 11:04:13;;;;;;;5.37;4.40;;;28.80;57.40;;;;;;4983880;28;20499;-66
2021/06/15 11:06:45;;;;;;;4.50;3.90;;;28.70;57.00;;;;;;4981795;28;20500;-66
2021/06/15 11:09:15;;;;;;;7.83;4.20;;;28.60;57.80;;;;;;4978236;28;20433;-66
2021/06/15 11:12:02;;;;;;;6.73;4.47;;;28.80;58.20;;;;;;4973578;28;21077;-66
2021/06/15 11:14:28;;;;;;;5.07;4.27;;;28.90;57.60;;;;;;4956738;28;20420;-66
2021/06/15 11:17:00;;;;;;;5.40;4.40;;;29.10;56.20;;;;;;4980731;28;20512;-66
2021/06/15 11:19:31;;;;;;;5.93;4.30;;;29.20;57.80;;;;;;4978118;28;20814;-66
2021/06/15 11:22:06;;;;;;;4.50;4.00;;;29.20;55.80;;;;;;4978204;28;20470;-66
2021/06/15 11:24:39;;;;;;;4.60;4.20;;;29.30;55.20;;;;;;4978390;28;20440;-65
2021/06/15 11:27:13;;;;;;;4.70;4.30;;;29.30;56.20;;;;;;4978022;28;21175;-65
2021/06/15 11:29:41;;;;;;;5.70;5.20;;;29.40;56.10;;;;;;4977080;28;20429;-66
2021/06/15 11:32:25;;;;;;;4.83;4.33;;;29.40;56.70;;;;;;4960297;28;20930;-66
2021/06/15 11:35:01;;;;;;;4.70;4.30;;;29.60;56.90;;;;;;4978739;28;20971;-66
2021/06/15 11:37:32;;;;;;;3.83;3.50;;;29.80;56.30;;;;;;4979549;28;20421;-66
2021/06/15 11:40:31;;;;;;;4.20;3.90;;;30.00;55.10;;;;;;4974439;28;20449;-65
2021/06/15 11:43:10;;;;;;;10.03;4.27;;;30.30;54.40;;;;;;4947547;28;20461;-70
2021/06/15 11:45:50;;;;;;;7.17;4.53;;;30.50;53.70;;;;;;4971455;28;20469;-66
2021/06/15 11:48:33;;;;;;;5.40;4.10;;;30.70;53.80;;;;;;4972494;28;20813;-66
2021/06/15 11:51:05;;;;;;;4.40;3.60;;;31.00;53.30;;;;;;4976378;28;20540;-64
2021/06/15 11:53:39;;;;;;;6.03;4.43;;;31.50;52.50;;;;;;4978138;28;20521;-66
2021/06/15 11:56:10;;;;;;;4.23;3.93;;;31.60;52.50;;;;;;4977702;28;20878;-66
2021/06/15 11:58:42;;;;;;;5.67;4.10;;;32.10;51.20;;;;;;4976763;28;20470;-66
2021/06/15 12:01:11;;;;;;;4.60;3.63;;;32.60;50.40;;;;;;4975274;28;20999;-66
2021/06/15 12:03:44;;;;;;;3.97;3.67;;;33.30;49.00;;;;;;4979106;28;20990;-64
2021/06/15 12:06:12;;;;;;;4.17;3.80;;;34.20;47.70;;;;;;4981434;28;20555;-67
2021/06/15 12:08:45;;;;;;;3.83;3.53;;;36.30;48.20;;;;;;4975456;28;20403;-65
2021/06/15 12:11:16;;;;;;;4.70;4.00;;;38.40;43.20;;;;;;4975596;28;20463;-66
2021/06/15 12:13:43;;;;;;;3.97;3.67;;;;;;;;;;4975284;28;20513;-65
2021/06/15 12:16:17;;;;;;;3.30;3.00;;;41.70;36.30;;;;;;4976980;28;20437;-65
2021/06/15 12:18:48;;;;;;;5.30;2.97;;;42.90;34.50;;;;;;4979882;28;20980;-66
2021/06/15 12:21:18;;;;;;;3.30;3.10;;;43.40;32.50;;;;;;4978947;28;20441;-67
2021/06/15 12:23:50;;;;;;;4.17;3.30;;;44.00;31.90;;;;;;4978097;28;20448;-66
2021/06/15 12:26:26;;;;;;;5.13;4.10;;;44.30;30.70;;;;;;4979197;28;20587;-65
2021/06/15 12:28:53;;;;;;;3.37;3.10;;;44.60;30.60;;;;;;4981691;28;20884;-67
2021/06/15 12:31:22;;;;;;;3.97;2.90;;;45.10;29.70;;;;;;4976293;28;20436;-66
2021/06/15 12:33:51;;;;;;;2.87;2.67;;;45.70;29.60;;;;;;4971887;28;20499;-65
2021/06/15 12:36:20;;;;;;;4.50;3.80;;;46.10;29.20;;;;;;4979973;28;20491;-65
2021/06/15 12:38:47;;;;;;;4.53;3.10;;;46.20;28.80;;;;;;4979635;28;20960;-65
2021/06/15 12:41:21;;;;;;;3.30;2.80;;;46.30;28.80;;;;;;4983033;28;20481;-65
2021/06/15 12:43:47;;;;;;;3.20;3.00;;;45.70;27.30;;;;;;4980905;28;20437;-66
2021/06/15 12:46:16;;;;;;;3.00;2.80;;;45.70;27.50;;;;;;4981260;28;20995;-68
2021/06/15 12:48:50;;;;;;;2.80;2.60;;;46.20;28.10;;;;;;4977337;28;21737;-66
2021/06/15 12:51:17;;;;;;;2.87;2.67;;;47.10;27.70;;;;;;4982236;28;20458;-66
2021/06/15 12:53:43;;;;;;;2.70;2.50;;;46.70;26.90;;;;;;4980279;28;20777;-64
2021/06/15 12:56:21;;;;;;;3.20;2.90;;;46.70;26.60;;;;;;4987633;28;20451;-65
2021/06/15 12:58:49;;;;;;;3.27;2.93;;;47.00;27.90;;;;;;4986015;28;20794;-65
2021/06/15 13:01:39;;;;;;;2.70;2.53;;;47.60;27.30;;;;;;4973401;28;20510;-66
2021/06/15 13:04:26;;;;;;;3.30;2.77;;;47.60;26.90;;;;;;4978455;28;20425;-65
2021/06/15 13:06:54;;;;;;;3.33;3.13;;;47.60;27.00;;;;;;4978090;28;21003;-65
2021/06/15 13:09:28;;;;;;;4.27;2.93;;;48.10;26.90;;;;;;4982921;28;20793;-66
2021/06/15 13:11:59;;;;;;;3.40;2.90;;;47.30;27.00;;;;;;4981385;28;20535;-66